LHPP/PEV METAR and TAF weather

Enter ICAO airport designator
Station Type Date Time Source
LHPP METAR 2019/08/20 16:15 UTC NOAA

LHPP 201615Z 14003KT CAVOK 31/17 Q1018


Station Type Date Time Source
LHPP Decoded METAR 2019/08/20 16:15 UTC NOAA

Station name not available
Aug 20, 2019 - 12:15 PM EDT / 2019.08.20 1615 UTC
Wind: from the SE (140 degrees) at 3 MPH (3 KT):0
Visibility: greater than 7 mile(s):0
Temperature: 87 F (31 C)
Dew Point: 62 F (17 C)
Relative Humidity: 43%
Pressure (altimeter): 30.06 in. Hg (1018 hPa)
ob: LHPP 201615Z 14003KT CAVOK 31/17 Q1018
cycle: 16

Station Type Date Time Source
LHPP TAF 2017/08/21 15:50 UTC NOAA

TAF LHPP 211700Z 2115/2214 CNL

Example: see airport list